sensor_id;sensor_type;location;lat;lon;timestamp;pressure;altitude;pressure_sealevel;temperature;humidity
15260;BME280;34462;51.368;12.364;2023-03-05T00:01:34;19126.97;;;-141.84;61.76
15260;BME280;34462;51.368;12.364;2023-03-05T00:04:06;19122.91;;;-141.84;61.94
15260;BME280;34462;51.368;12.364;2023-03-05T00:06:35;19102.56;;;-141.84;62.27
15260;BME280;34462;51.368;12.364;2023-03-05T00:09:04;19114.78;;;-141.84;62.51
15260;BME280;34462;51.368;12.364;2023-03-05T00:11:34;19102.56;;;-141.84;62.75
15260;BME280;34462;51.368;12.364;2023-03-05T00:14:03;19139.16;;;-141.84;62.73
15260;BME280;34462;51.368;12.364;2023-03-05T00:16:32;19110.72;;;-141.84;62.21
15260;BME280;34462;51.368;12.364;2023-03-05T00:19:01;19059.91;;;-141.84;62.97
15260;BME280;34462;51.368;12.364;2023-03-05T00:21:32;19088.34;;;-141.84;62.84
15260;BME280;34462;51.368;12.364;2023-03-05T00:24:04;19108.69;;;-141.84;63.17
15260;BME280;34462;51.368;12.364;2023-03-05T00:26:37;19118.84;;;-141.84;62.97
15260;BME280;34462;51.368;12.364;2023-03-05T00:29:06;19129.00;;;-141.84;61.85
15260;BME280;34462;51.368;12.364;2023-03-05T00:31:36;19059.91;;;-141.84;61.95
15260;BME280;34462;51.368;12.364;2023-03-05T00:34:07;19106.66;;;-141.84;61.97
15260;BME280;34462;51.368;12.364;2023-03-05T00:36:39;19063.97;;;-141.84;62.58
15260;BME280;34462;51.368;12.364;2023-03-05T00:39:07;19084.28;;;-141.84;62.47
15260;BME280;34462;51.368;12.364;2023-03-05T00:41:37;19070.06;;;-141.84;62.62
15260;BME280;34462;51.368;12.364;2023-03-05T00:44:06;19063.97;;;-141.84;62.70
15260;BME280;34462;51.368;12.364;2023-03-05T00:46:35;19043.66;;;-141.84;62.55
15260;BME280;34462;51.368;12.364;2023-03-05T00:49:04;19104.59;;;-141.84;62.12
15260;BME280;34462;51.368;12.364;2023-03-05T00:51:32;19082.25;;;-141.84;61.97
15260;BME280;34462;51.368;12.364;2023-03-05T00:54:00;19096.47;;;-141.84;61.77
15260;BME280;34462;51.368;12.364;2023-03-05T00:56:29;19098.50;;;-141.84;61.07
15260;BME280;34462;51.368;12.364;2023-03-05T00:58:59;19078.19;;;-141.84;60.85
15260;BME280;34462;51.368;12.364;2023-03-05T01:01:27;19122.91;;;-141.84;59.77
15260;BME280;34462;51.368;12.364;2023-03-05T01:03:55;19084.28;;;-141.84;60.05
15260;BME280;34462;51.368;12.364;2023-03-05T01:06:25;19057.88;;;-141.84;60.73
15260;BME280;34462;51.368;12.364;2023-03-05T01:08:54;19102.56;;;-141.84;61.18
15260;BME280;34462;51.368;12.364;2023-03-05T01:11:23;19057.88;;;-141.84;60.21
15260;BME280;34462;51.368;12.364;2023-03-05T01:13:51;19114.78;;;-141.84;60.26
15260;BME280;34462;51.368;12.364;2023-03-05T01:16:21;19112.75;;;-141.84;60.12
15260;BME280;34462;51.368;12.364;2023-03-05T01:18:50;19066.00;;;-141.84;60.47
15260;BME280;34462;51.368;12.364;2023-03-05T01:21:18;19094.44;;;-141.84;60.47
15260;BME280;34462;51.368;12.364;2023-03-05T01:23:47;19082.25;;;-141.84;60.75
15260;BME280;34462;51.368;12.364;2023-03-05T01:26:16;19080.22;;;-141.84;60.79
15260;BME280;34462;51.368;12.364;2023-03-05T01:28:44;19086.31;;;-141.84;61.47
15260;BME280;34462;51.368;12.364;2023-03-05T01:31:12;19106.66;;;-141.84;61.08
15260;BME280;34462;51.368;12.364;2023-03-05T01:33:42;19120.88;;;-141.84;60.84
15260;BME280;34462;51.368;12.364;2023-03-05T01:36:13;19108.69;;;-141.84;61.06
15260;BME280;34462;51.368;12.364;2023-03-05T01:38:44;19047.72;;;-141.84;61.70
15260;BME280;34462;51.368;12.364;2023-03-05T01:41:15;19086.31;;;-141.84;61.19
15260;BME280;34462;51.368;12.364;2023-03-05T01:43:45;19057.88;;;-141.84;61.09
15260;BME280;34462;51.368;12.364;2023-03-05T01:46:32;19094.44;;;-141.84;61.29
15260;BME280;34462;51.368;12.364;2023-03-05T01:49:16;19078.19;;;-141.84;61.37
15260;BME280;34462;51.368;12.364;2023-03-05T01:52:06;19070.06;;;-141.84;61.07
15260;BME280;34462;51.368;12.364;2023-03-05T01:54:42;19084.28;;;-141.84;61.43
15260;BME280;34462;51.368;12.364;2023-03-05T01:57:15;19059.91;;;-141.84;61.51
15260;BME280;34462;51.368;12.364;2023-03-05T01:59:49;19047.72;;;-141.84;61.99
15260;BME280;34462;51.368;12.364;2023-03-05T02:02:19;19045.69;;;-141.84;61.82
15260;BME280;34462;51.368;12.364;2023-03-05T02:04:54;19078.19;;;-141.84;62.00
15260;BME280;34462;51.368;12.364;2023-03-05T02:07:24;19053.81;;;-141.84;61.40
15260;BME280;34462;51.368;12.364;2023-03-05T02:09:53;19055.84;;;-141.84;62.35
15260;BME280;34462;51.368;12.364;2023-03-05T02:12:21;19039.59;;;-141.84;62.67
15260;BME280;34462;51.368;12.364;2023-03-05T02:14:52;19080.22;;;-141.84;62.63
15260;BME280;34462;51.368;12.364;2023-03-05T02:17:26;19066.00;;;-141.84;62.93
15260;BME280;34462;51.368;12.364;2023-03-05T02:20:06;19074.13;;;-141.84;63.10
15260;BME280;34462;51.368;12.364;2023-03-05T02:22:37;19076.16;;;-141.84;63.13
15260;BME280;34462;51.368;12.364;2023-03-05T02:25:18;19031.47;;;-141.84;64.11
15260;BME280;34462;51.368;12.364;2023-03-05T02:27:54;19055.84;;;-141.84;63.95
15260;BME280;34462;51.368;12.364;2023-03-05T02:30:25;19080.22;;;-141.84;63.48
15260;BME280;34462;51.368;12.364;2023-03-05T02:32:53;19003.00;;;-141.84;64.08
15260;BME280;34462;51.368;12.364;2023-03-05T02:35:22;19051.78;;;-141.84;64.07
15260;BME280;34462;51.368;12.364;2023-03-05T02:37:52;19053.81;;;-141.84;63.50
15260;BME280;34462;51.368;12.364;2023-03-05T02:40:21;19070.06;;;-141.84;63.78
15260;BME280;34462;51.368;12.364;2023-03-05T02:42:50;19074.13;;;-141.84;64.13
15260;BME280;34462;51.368;12.364;2023-03-05T02:45:18;19029.44;;;-141.84;64.49
15260;BME280;34462;51.368;12.364;2023-03-05T02:47:46;19041.63;;;-141.84;64.21
15260;BME280;34462;51.368;12.364;2023-03-05T02:50:15;19063.97;;;-141.84;64.95
15260;BME280;34462;51.368;12.364;2023-03-05T02:52:43;19025.38;;;-141.84;65.27
15260;BME280;34462;51.368;12.364;2023-03-05T02:55:13;19031.47;;;-141.84;65.84
15260;BME280;34462;51.368;12.364;2023-03-05T02:57:41;19029.44;;;-141.84;66.66
15260;BME280;34462;51.368;12.364;2023-03-05T03:00:11;19017.25;;;-141.84;67.14
15260;BME280;34462;51.368;12.364;2023-03-05T03:02:39;19025.38;;;-141.84;67.19
15260;BME280;34462;51.368;12.364;2023-03-05T03:05:08;19025.38;;;-141.84;67.37
15260;BME280;34462;51.368;12.364;2023-03-05T03:07:36;19033.50;;;-141.84;67.66
15260;BME280;34462;51.368;12.364;2023-03-05T03:10:06;19019.28;;;-141.84;67.70
15260;BME280;34462;51.368;12.364;2023-03-05T03:12:37;18996.91;;;-141.84;67.73
15260;BME280;34462;51.368;12.364;2023-03-05T03:15:09;19029.44;;;-141.84;67.48
15260;BME280;34462;51.368;12.364;2023-03-05T03:17:38;19041.63;;;-141.84;67.89
15260;BME280;34462;51.368;12.364;2023-03-05T03:20:10;19053.81;;;-141.84;68.16
15260;BME280;34462;51.368;12.364;2023-03-05T03:22:40;19059.91;;;-141.84;68.08
15260;BME280;34462;51.368;12.364;2023-03-05T03:25:10;19029.44;;;-141.84;68.62
15260;BME280;34462;51.368;12.364;2023-03-05T03:27:40;19013.16;;;-141.84;68.80
15260;BME280;34462;51.368;12.364;2023-03-05T03:30:10;19009.09;;;-141.84;68.05
15260;BME280;34462;51.368;12.364;2023-03-05T03:32:39;19025.38;;;-141.84;68.04
15260;BME280;34462;51.368;12.364;2023-03-05T03:35:09;19043.66;;;-141.84;68.24
15260;BME280;34462;51.368;12.364;2023-03-05T03:37:38;19063.97;;;-141.84;67.63
15260;BME280;34462;51.368;12.364;2023-03-05T03:40:08;19009.09;;;-141.84;68.38
15260;BME280;34462;51.368;12.364;2023-03-05T03:42:37;18988.78;;;-141.84;68.71
15260;BME280;34462;51.368;12.364;2023-03-05T03:45:08;18994.88;;;-141.84;69.43
15260;BME280;34462;51.368;12.364;2023-03-05T03:47:37;18986.75;;;-141.84;69.45
15260;BME280;34462;51.368;12.364;2023-03-05T03:50:06;19035.53;;;-141.84;68.68
15260;BME280;34462;51.368;12.364;2023-03-05T03:52:35;19007.06;;;-141.84;68.96
15260;BME280;34462;51.368;12.364;2023-03-05T03:55:04;19007.06;;;-141.84;69.94
15260;BME280;34462;51.368;12.364;2023-03-05T03:57:32;19005.03;;;-141.84;70.47
15260;BME280;34462;51.368;12.364;2023-03-05T04:00:01;19031.47;;;-141.84;70.05
15260;BME280;34462;51.368;12.364;2023-03-05T04:02:34;19009.09;;;-141.84;70.13
15260;BME280;34462;51.368;12.364;2023-03-05T04:05:03;18988.78;;;-141.84;70.43
15260;BME280;34462;51.368;12.364;2023-03-05T04:07:31;18980.66;;;-141.84;69.81
15260;BME280;34462;51.368;12.364;2023-03-05T04:09:59;19007.06;;;-141.84;69.34
15260;BME280;34462;51.368;12.364;2023-03-05T04:12:27;19009.09;;;-141.84;69.45
15260;BME280;34462;51.368;12.364;2023-03-05T04:14:56;19017.25;;;-141.84;69.22
15260;BME280;34462;51.368;12.364;2023-03-05T04:17:24;18996.91;;;-141.84;68.22
15260;BME280;34462;51.368;12.364;2023-03-05T04:19:53;19009.09;;;-141.84;67.92
15260;BME280;34462;51.368;12.364;2023-03-05T04:22:22;18972.53;;;-141.84;68.38
15260;BME280;34462;51.368;12.364;2023-03-05T04:24:50;19043.66;;;-141.84;67.87
15260;BME280;34462;51.368;12.364;2023-03-05T04:27:18;19015.19;;;-141.84;67.27
15260;BME280;34462;51.368;12.364;2023-03-05T04:29:46;18996.91;;;-141.84;67.45
15260;BME280;34462;51.368;12.364;2023-03-05T04:32:15;19025.38;;;-141.84;66.91
15260;BME280;34462;51.368;12.364;2023-03-05T04:34:49;19029.44;;;-141.84;66.28
15260;BME280;34462;51.368;12.364;2023-03-05T04:37:18;19027.41;;;-141.84;65.98
15260;BME280;34462;51.368;12.364;2023-03-05T04:39:46;19051.78;;;-141.84;66.10
15260;BME280;34462;51.368;12.364;2023-03-05T04:42:14;19027.41;;;-141.84;65.51
15260;BME280;34462;51.368;12.364;2023-03-05T04:44:44;19033.50;;;-141.84;65.58
15260;BME280;34462;51.368;12.364;2023-03-05T04:47:12;19005.03;;;-141.84;66.09
15260;BME280;34462;51.368;12.364;2023-03-05T04:49:40;19035.53;;;-141.84;65.67
15260;BME280;34462;51.368;12.364;2023-03-05T04:52:09;19003.00;;;-141.84;64.73
15260;BME280;34462;51.368;12.364;2023-03-05T04:54:39;19061.94;;;-141.84;64.82
15260;BME280;34462;51.368;12.364;2023-03-05T04:57:08;19027.41;;;-141.84;65.00
15260;BME280;34462;51.368;12.364;2023-03-05T04:59:36;18990.81;;;-141.84;65.49
15260;BME280;34462;51.368;12.364;2023-03-05T05:02:05;19009.09;;;-141.84;65.53
15260;BME280;34462;51.368;12.364;2023-03-05T05:04:33;19035.53;;;-141.84;66.03
15260;BME280;34462;51.368;12.364;2023-03-05T05:07:03;19043.66;;;-141.84;66.00
15260;BME280;34462;51.368;12.364;2023-03-05T05:09:33;19011.13;;;-141.84;66.30
15260;BME280;34462;51.368;12.364;2023-03-05T05:12:03;19015.19;;;-141.84;66.65
15260;BME280;34462;51.368;12.364;2023-03-05T05:14:33;19027.41;;;-141.84;66.87
15260;BME280;34462;51.368;12.364;2023-03-05T05:17:01;19017.25;;;-141.84;66.30
15260;BME280;34462;51.368;12.364;2023-03-05T05:19:31;19041.63;;;-141.84;65.91
15260;BME280;34462;51.368;12.364;2023-03-05T05:22:00;19049.75;;;-141.84;65.98
15260;BME280;34462;51.368;12.364;2023-03-05T05:24:28;19009.09;;;-141.84;66.96
15260;BME280;34462;51.368;12.364;2023-03-05T05:26:56;19033.50;;;-141.84;66.68
15260;BME280;34462;51.368;12.364;2023-03-05T05:29:26;19045.69;;;-141.84;66.00
15260;BME280;34462;51.368;12.364;2023-03-05T05:31:54;19013.16;;;-141.84;66.51
15260;BME280;34462;51.368;12.364;2023-03-05T05:34:22;19025.38;;;-141.84;66.83
15260;BME280;34462;51.368;12.364;2023-03-05T05:36:51;19035.53;;;-141.84;67.12
15260;BME280;34462;51.368;12.364;2023-03-05T05:39:19;19059.91;;;-141.84;67.70
15260;BME280;34462;51.368;12.364;2023-03-05T05:41:50;19049.75;;;-141.84;68.17
15260;BME280;34462;51.368;12.364;2023-03-05T05:44:18;19037.56;;;-141.84;67.32
15260;BME280;34462;51.368;12.364;2023-03-05T05:46:48;19033.50;;;-141.84;67.96
15260;BME280;34462;51.368;12.364;2023-03-05T05:49:16;19037.56;;;-141.84;68.15
15260;BME280;34462;51.368;12.364;2023-03-05T05:51:44;19021.31;;;-141.84;69.04
15260;BME280;34462;51.368;12.364;2023-03-05T05:54:14;19000.97;;;-141.84;69.50
15260;BME280;34462;51.368;12.364;2023-03-05T05:56:42;19045.69;;;-141.84;69.46
15260;BME280;34462;51.368;12.364;2023-03-05T05:59:11;19021.31;;;-141.84;69.49
15260;BME280;34462;51.368;12.364;2023-03-05T06:01:39;19037.56;;;-141.84;68.43
15260;BME280;34462;51.368;12.364;2023-03-05T06:04:08;19051.78;;;-141.84;67.84
15260;BME280;34462;51.368;12.364;2023-03-05T06:06:36;19059.91;;;-141.84;67.24
15260;BME280;34462;51.368;12.364;2023-03-05T06:09:05;19037.56;;;-141.84;67.84
15260;BME280;34462;51.368;12.364;2023-03-05T06:11:33;19049.75;;;-141.84;67.66
15260;BME280;34462;51.368;12.364;2023-03-05T06:14:02;19057.88;;;-141.84;67.94
15260;BME280;34462;51.368;12.364;2023-03-05T06:16:30;19068.03;;;-141.84;68.45
15260;BME280;34462;51.368;12.364;2023-03-05T06:18:58;19015.19;;;-141.84;69.11
15260;BME280;34462;51.368;12.364;2023-03-05T06:21:32;19025.38;;;-141.84;69.63
15260;BME280;34462;51.368;12.364;2023-03-05T06:24:00;19047.72;;;-141.84;69.78
15260;BME280;34462;51.368;12.364;2023-03-05T06:26:29;19041.63;;;-141.84;70.56
15260;BME280;34462;51.368;12.364;2023-03-05T06:28:57;19021.31;;;-141.84;71.56
15260;BME280;34462;51.368;12.364;2023-03-05T06:31:28;18976.59;;;-141.84;71.67
15260;BME280;34462;51.368;12.364;2023-03-05T06:33:59;19017.25;;;-141.84;72.12
15260;BME280;34462;51.368;12.364;2023-03-05T06:36:29;19051.78;;;-141.84;72.59
15260;BME280;34462;51.368;12.364;2023-03-05T06:38:58;19025.38;;;-141.84;73.22
15260;BME280;34462;51.368;12.364;2023-03-05T06:41:29;19029.44;;;-141.84;73.17
15260;BME280;34462;51.368;12.364;2023-03-05T06:44:00;19013.16;;;-141.84;74.35
15260;BME280;34462;51.368;12.364;2023-03-05T06:46:31;19005.03;;;-141.84;74.17
15260;BME280;34462;51.368;12.364;2023-03-05T06:49:02;19007.06;;;-141.84;73.72
15260;BME280;34462;51.368;12.364;2023-03-05T06:51:34;19033.50;;;-141.84;73.54
15260;BME280;34462;51.368;12.364;2023-03-05T06:54:06;19049.75;;;-141.84;72.36
15260;BME280;34462;51.368;12.364;2023-03-05T06:56:37;19049.75;;;-141.84;72.46
15260;BME280;34462;51.368;12.364;2023-03-05T06:59:06;19063.97;;;-141.84;72.94
15260;BME280;34462;51.368;12.364;2023-03-05T07:01:34;19029.44;;;-141.84;72.10
15260;BME280;34462;51.368;12.364;2023-03-05T07:04:04;19000.97;;;-141.84;73.25
15260;BME280;34462;51.368;12.364;2023-03-05T07:06:35;19029.44;;;-141.84;73.20
15260;BME280;34462;51.368;12.364;2023-03-05T07:09:09;19009.09;;;-141.84;73.10
15260;BME280;34462;51.368;12.364;2023-03-05T07:11:38;19027.41;;;-141.84;72.18
15260;BME280;34462;51.368;12.364;2023-03-05T07:14:06;19027.41;;;-141.84;71.29
15260;BME280;34462;51.368;12.364;2023-03-05T07:16:34;19068.03;;;-141.84;70.96
15260;BME280;34462;51.368;12.364;2023-03-05T07:19:05;19039.59;;;-141.84;70.32
15260;BME280;34462;51.368;12.364;2023-03-05T07:21:34;19047.72;;;-141.84;70.90
15260;BME280;34462;51.368;12.364;2023-03-05T07:24:07;19043.66;;;-141.84;70.72
15260;BME280;34462;51.368;12.364;2023-03-05T07:26:36;19037.56;;;-141.84;71.20
15260;BME280;34462;51.368;12.364;2023-03-05T07:29:04;19057.88;;;-141.84;71.21
15260;BME280;34462;51.368;12.364;2023-03-05T07:31:32;19031.47;;;-141.84;71.73
15260;BME280;34462;51.368;12.364;2023-03-05T07:34:02;19070.06;;;-141.84;72.15
15260;BME280;34462;51.368;12.364;2023-03-05T07:36:32;19045.69;;;-141.84;71.96
15260;BME280;34462;51.368;12.364;2023-03-05T07:39:02;19013.16;;;-141.84;71.91
15260;BME280;34462;51.368;12.364;2023-03-05T07:41:32;19013.16;;;-141.84;72.34
15260;BME280;34462;51.368;12.364;2023-03-05T07:44:01;19029.44;;;-141.84;71.99
15260;BME280;34462;51.368;12.364;2023-03-05T07:46:32;19051.78;;;-141.84;71.22
15260;BME280;34462;51.368;12.364;2023-03-05T07:49:00;19051.78;;;-141.84;70.55
15260;BME280;34462;51.368;12.364;2023-03-05T07:51:29;19070.06;;;-141.84;69.93
15260;BME280;34462;51.368;12.364;2023-03-05T07:53:58;19053.81;;;-141.84;70.74
15260;BME280;34462;51.368;12.364;2023-03-05T07:56:29;19076.16;;;-141.84;71.38
15260;BME280;34462;51.368;12.364;2023-03-05T07:59:02;19084.28;;;-141.84;69.62
15260;BME280;34462;51.368;12.364;2023-03-05T08:01:32;19070.06;;;-141.84;70.15
15260;BME280;34462;51.368;12.364;2023-03-05T08:04:01;19082.25;;;-141.84;70.22
15260;BME280;34462;51.368;12.364;2023-03-05T08:06:30;19096.47;;;-141.84;69.62
15260;BME280;34462;51.368;12.364;2023-03-05T08:08:59;19051.78;;;-141.84;69.22
15260;BME280;34462;51.368;12.364;2023-03-05T08:11:27;19086.31;;;-141.84;69.78
15260;BME280;34462;51.368;12.364;2023-03-05T08:13:56;19108.69;;;-141.84;67.94
15260;BME280;34462;51.368;12.364;2023-03-05T08:16:26;19133.06;;;-141.84;67.66
15260;BME280;34462;51.368;12.364;2023-03-05T08:18:56;19155.41;;;-141.84;68.03
15260;BME280;34462;51.368;12.364;2023-03-05T08:21:27;19126.97;;;-141.84;66.89
15260;BME280;34462;51.368;12.364;2023-03-05T08:23:57;19151.34;;;-141.84;66.96
15260;BME280;34462;51.368;12.364;2023-03-05T08:26:28;19161.50;;;-141.84;67.00
15260;BME280;34462;51.368;12.364;2023-03-05T08:28:57;19177.75;;;-141.84;66.44
15260;BME280;34462;51.368;12.364;2023-03-05T08:31:27;19175.72;;;-141.84;65.77
15260;BME280;34462;51.368;12.364;2023-03-05T08:33:57;19157.44;;;-141.84;65.04
15260;BME280;34462;51.368;12.364;2023-03-05T08:36:26;19187.91;;;-141.84;64.19
15260;BME280;34462;51.368;12.364;2023-03-05T08:38:55;19234.66;;;-141.84;63.21
15260;BME280;34462;51.368;12.364;2023-03-05T08:41:25;19208.25;;;-141.84;63.35
15260;BME280;34462;51.368;12.364;2023-03-05T08:43:53;19236.69;;;-141.84;63.42
15260;BME280;34462;51.368;12.364;2023-03-05T08:46:21;19194.03;;;-141.84;64.03
15260;BME280;34462;51.368;12.364;2023-03-05T08:48:51;19244.81;;;-141.84;62.16
15260;BME280;34462;51.368;12.364;2023-03-05T08:51:22;19220.44;;;-141.84;62.20
15260;BME280;34462;51.368;12.364;2023-03-05T08:53:53;19228.56;;;-141.84;62.85
15260;BME280;34462;51.368;12.364;2023-03-05T08:56:22;19232.63;;;-141.84;63.25
15260;BME280;34462;51.368;12.364;2023-03-05T08:58:52;19240.75;;;-141.84;62.89
15260;BME280;34462;51.368;12.364;2023-03-05T09:01:20;19246.84;;;-141.84;61.94
15260;BME280;34462;51.368;12.364;2023-03-05T09:03:51;19214.34;;;-141.84;62.59
15260;BME280;34462;51.368;12.364;2023-03-05T09:06:19;19175.72;;;-141.84;63.29
15260;BME280;34462;51.368;12.364;2023-03-05T09:08:48;19230.59;;;-141.84;64.39
15260;BME280;34462;51.368;12.364;2023-03-05T09:11:16;19165.56;;;-141.84;64.97
15260;BME280;34462;51.368;12.364;2023-03-05T09:13:44;19212.31;;;-141.84;64.22
15260;BME280;34462;51.368;12.364;2023-03-05T09:16:16;19175.72;;;-141.84;63.03
15260;BME280;34462;51.368;12.364;2023-03-05T09:18:44;19222.47;;;-141.84;63.87
15260;BME280;34462;51.368;12.364;2023-03-05T09:21:16;19267.16;;;-141.84;62.83
15260;BME280;34462;51.368;12.364;2023-03-05T09:23:45;19238.72;;;-141.84;62.75
15260;BME280;34462;51.368;12.364;2023-03-05T09:26:15;19212.31;;;-141.84;63.64
15260;BME280;34462;51.368;12.364;2023-03-05T09:28:46;19177.75;;;-141.84;63.59
15260;BME280;34462;51.368;12.364;2023-03-05T09:31:14;19151.34;;;-141.84;65.12
15260;BME280;34462;51.368;12.364;2023-03-05T09:33:43;19133.06;;;-141.84;66.84
15260;BME280;34462;51.368;12.364;2023-03-05T09:36:20;19124.94;;;-141.84;68.05
15260;BME280;34462;51.368;12.364;2023-03-05T09:38:50;19116.81;;;-141.84;68.54
15260;BME280;34462;51.368;12.364;2023-03-05T09:41:29;19126.97;;;-141.84;69.77
15260;BME280;34462;51.368;12.364;2023-03-05T09:44:21;19096.47;;;-141.84;70.43
15260;BME280;34462;51.368;12.364;2023-03-05T09:47:06;19110.72;;;-141.84;70.73
15260;BME280;34462;51.368;12.364;2023-03-05T09:49:50;19074.13;;;-141.84;71.99
15260;BME280;34462;51.368;12.364;2023-03-05T09:52:34;19102.56;;;-141.84;72.50
15260;BME280;34462;51.368;12.364;2023-03-05T09:55:13;19088.34;;;-141.84;71.80
15260;BME280;34462;51.368;12.364;2023-03-05T09:57:47;19124.94;;;-141.84;70.80
15260;BME280;34462;51.368;12.364;2023-03-05T10:00:33;19157.44;;;-141.84;69.90
15260;BME280;34462;51.368;12.364;2023-03-05T10:03:11;19202.16;;;-141.84;68.15
15260;BME280;34462;51.368;12.364;2023-03-05T10:05:57;19196.06;;;-141.84;68.07
15260;BME280;34462;51.368;12.364;2023-03-05T10:08:40;19194.03;;;-141.84;68.10
15260;BME280;34462;51.368;12.364;2023-03-05T10:11:28;19202.16;;;-141.84;67.83
15260;BME280;34462;51.368;12.364;2023-03-05T10:13:58;19155.41;;;-141.84;68.43
15260;BME280;34462;51.368;12.364;2023-03-05T10:16:59;19183.84;;;-141.84;68.15
15260;BME280;34462;51.368;12.364;2023-03-05T10:20:14;19198.09;;;-141.84;68.05
15260;BME280;34462;51.368;12.364;2023-03-05T10:23:09;19212.31;;;-141.84;67.64
15260;BME280;34462;51.368;12.364;2023-03-05T10:25:57;19226.53;;;-141.84;66.36
15260;BME280;34462;51.368;12.364;2023-03-05T10:28:38;19244.81;;;-141.84;65.42
15260;BME280;34462;51.368;12.364;2023-03-05T10:31:35;19261.06;;;-141.84;66.05
15260;BME280;34462;51.368;12.364;2023-03-05T10:34:28;19222.47;;;-141.84;65.95
15260;BME280;34462;51.368;12.364;2023-03-05T10:37:37;19208.25;;;-141.84;65.58
15260;BME280;34462;51.368;12.364;2023-03-05T10:40:24;19198.09;;;-141.84;66.09
15260;BME280;34462;51.368;12.364;2023-03-05T10:43:06;19175.72;;;-141.84;66.95
15260;BME280;34462;51.368;12.364;2023-03-05T10:45:39;19206.22;;;-141.84;65.58
15260;BME280;34462;51.368;12.364;2023-03-05T10:48:24;19161.50;;;-141.84;66.32
15260;BME280;34462;51.368;12.364;2023-03-05T10:51:01;19161.50;;;-141.84;68.15
15260;BME280;34462;51.368;12.364;2023-03-05T10:53:34;19151.34;;;-141.84;69.31
15260;BME280;34462;51.368;12.364;2023-03-05T10:56:11;19169.63;;;-141.84;69.51
15260;BME280;34462;51.368;12.364;2023-03-05T10:58:40;19194.03;;;-141.84;68.17
15260;BME280;34462;51.368;12.364;2023-03-05T11:01:21;19206.22;;;-141.84;67.92
15260;BME280;34462;51.368;12.364;2023-03-05T11:03:55;19242.78;;;-141.84;66.92
15260;BME280;34462;51.368;12.364;2023-03-05T11:06:36;19248.88;;;-141.84;65.55
15260;BME280;34462;51.368;12.364;2023-03-05T11:09:22;19246.84;;;-141.84;64.42
15260;BME280;34462;51.368;12.364;2023-03-05T11:12:14;19273.28;;;-141.84;64.34
15260;BME280;34462;51.368;12.364;2023-03-05T11:14:47;19273.28;;;-141.84;63.67
15260;BME280;34462;51.368;12.364;2023-03-05T11:17:32;19277.34;;;-141.84;65.18
15260;BME280;34462;51.368;12.364;2023-03-05T11:20:34;19311.88;;;-141.84;63.54
15260;BME280;34462;51.368;12.364;2023-03-05T11:23:12;19281.41;;;-141.84;63.03
15260;BME280;34462;51.368;12.364;2023-03-05T11:25:59;19291.56;;;-141.84;62.29
15260;BME280;34462;51.368;12.364;2023-03-05T11:28:33;19289.53;;;-141.84;62.04
15260;BME280;34462;51.368;12.364;2023-03-05T11:31:20;19257.00;;;-141.84;62.95
15260;BME280;34462;51.368;12.364;2023-03-05T11:33:57;19238.72;;;-141.84;64.50
15260;BME280;34462;51.368;12.364;2023-03-05T11:36:29;19198.09;;;-141.84;65.25
15260;BME280;34462;51.368;12.364;2023-03-05T11:39:10;19228.56;;;-141.84;65.04
15260;BME280;34462;51.368;12.364;2023-03-05T11:41:43;19208.25;;;-141.84;66.09
15260;BME280;34462;51.368;12.364;2023-03-05T11:44:15;19185.88;;;-141.84;66.19
15260;BME280;34462;51.368;12.364;2023-03-05T11:46:51;19204.19;;;-141.84;64.55
15260;BME280;34462;51.368;12.364;2023-03-05T11:49:26;19185.88;;;-141.84;65.24
15260;BME280;34462;51.368;12.364;2023-03-05T11:52:05;19198.09;;;-141.84;65.44
15260;BME280;34462;51.368;12.364;2023-03-05T11:54:50;19224.50;;;-141.84;64.81
15260;BME280;34462;51.368;12.364;2023-03-05T11:57:22;19220.44;;;-141.84;64.38
15260;BME280;34462;51.368;12.364;2023-03-05T11:59:54;19281.41;;;-141.84;62.65
15260;BME280;34462;51.368;12.364;2023-03-05T12:02:26;19291.56;;;-141.84;61.53
15260;BME280;34462;51.368;12.364;2023-03-05T12:04:55;19328.13;;;-141.84;61.39
15260;BME280;34462;51.368;12.364;2023-03-05T12:07:33;19315.94;;;-141.84;61.24
15260;BME280;34462;51.368;12.364;2023-03-05T12:10:04;19293.59;;;-141.84;61.45
15260;BME280;34462;51.368;12.364;2023-03-05T12:12:39;19287.50;;;-141.84;60.33
15260;BME280;34462;51.368;12.364;2023-03-05T12:15:37;19257.00;;;-141.84;60.06
15260;BME280;34462;51.368;12.364;2023-03-05T12:18:33;19273.28;;;-141.84;60.93
15260;BME280;34462;51.368;12.364;2023-03-05T12:21:14;19228.56;;;-141.84;61.23
15260;BME280;34462;51.368;12.364;2023-03-05T12:23:49;19228.56;;;-141.84;62.88
15260;BME280;34462;51.368;12.364;2023-03-05T12:26:55;19208.25;;;-141.84;64.25
15260;BME280;34462;51.368;12.364;2023-03-05T12:29:41;19189.97;;;-141.84;65.49
15260;BME280;34462;51.368;12.364;2023-03-05T12:32:58;19141.19;;;-141.84;67.02
15260;BME280;34462;51.368;12.364;2023-03-05T12:35:40;19153.38;;;-141.84;67.20
15260;BME280;34462;51.368;12.364;2023-03-05T12:38:30;19165.56;;;-141.84;67.92
15260;BME280;34462;51.368;12.364;2023-03-05T12:41:41;19171.66;;;-141.84;68.28
15260;BME280;34462;51.368;12.364;2023-03-05T12:44:21;19177.75;;;-141.84;67.35
15260;BME280;34462;51.368;12.364;2023-03-05T12:47:18;19175.72;;;-141.84;67.67
15260;BME280;34462;51.368;12.364;2023-03-05T12:49:49;19155.41;;;-141.84;68.74
15260;BME280;34462;51.368;12.364;2023-03-05T12:52:26;19163.53;;;-141.84;69.15
15260;BME280;34462;51.368;12.364;2023-03-05T12:55:18;19131.03;;;-141.84;68.21
15260;BME280;34462;51.368;12.364;2023-03-05T12:57:56;19147.28;;;-141.84;66.79
15260;BME280;34462;51.368;12.364;2023-03-05T13:00:34;19177.75;;;-141.84;66.21